createdAt,value
2023-05-19T00:01:49.414Z,10.63
2023-05-19T00:04:16.480Z,10.50
2023-05-19T00:06:44.681Z,10.24
2023-05-19T00:09:11.940Z,10.08
2023-05-19T00:11:39.833Z,10.10
2023-05-19T00:14:09.456Z,10.16
2023-05-19T00:16:37.893Z,10.37
2023-05-19T00:19:06.393Z,10.18
2023-05-19T00:21:32.969Z,10.21
2023-05-19T00:23:59.316Z,10.32
2023-05-19T00:26:27.976Z,10.37
2023-05-19T00:28:59.508Z,10.23
2023-05-19T00:31:26.009Z,10.34
2023-05-19T00:33:52.401Z,10.39
2023-05-19T00:36:18.823Z,10.21
2023-05-19T00:38:45.174Z,10.21
2023-05-19T00:41:11.813Z,10.14
2023-05-19T00:43:38.168Z,10.00
2023-05-19T00:46:04.617Z,9.92
2023-05-19T00:48:30.963Z,9.62
2023-05-19T00:51:03.913Z,9.55
2023-05-19T00:53:33.179Z,9.64
2023-05-19T00:56:00.386Z,9.54
2023-05-19T00:58:30.578Z,9.72
2023-05-19T01:01:03.216Z,9.72
2023-05-19T01:03:35.532Z,9.63
2023-05-19T01:06:05.550Z,9.38
2023-05-19T01:08:35.620Z,9.45
2023-05-19T01:11:02.185Z,9.24
2023-05-19T01:13:29.223Z,9.20
2023-05-19T01:16:21.313Z,9.27
2023-05-19T01:18:47.775Z,8.97
2023-05-19T01:21:36.732Z,9.03
2023-05-19T01:24:24.261Z,9.14
2023-05-19T01:27:24.011Z,9.26
2023-05-19T01:30:25.288Z,9.45
2023-05-19T01:32:54.582Z,9.23
2023-05-19T01:35:24.871Z,9.05
2023-05-19T01:37:58.490Z,9.07
2023-05-19T01:40:26.562Z,8.86
2023-05-19T01:42:57.551Z,8.80
2023-05-19T01:45:26.507Z,8.83
2023-05-19T01:47:59.545Z,8.83
2023-05-19T01:50:26.324Z,8.48
2023-05-19T01:52:53.017Z,8.54
2023-05-19T01:55:21.099Z,8.24
2023-05-19T01:58:18.866Z,8.16
2023-05-19T02:00:53.261Z,8.21
2023-05-19T02:04:00.530Z,8.30
2023-05-19T02:06:33.181Z,8.31
2023-05-19T02:09:06.660Z,8.49
2023-05-19T02:11:37.990Z,8.39
2023-05-19T02:14:19.981Z,8.38
2023-05-19T02:16:48.570Z,8.36
2023-05-19T02:19:25.902Z,8.39
2023-05-19T02:21:54.867Z,8.11
2023-05-19T02:24:22.716Z,8.07
2023-05-19T02:26:50.188Z,8.18
2023-05-19T02:29:18.836Z,8.21
2023-05-19T02:31:45.304Z,8.11
2023-05-19T02:34:11.870Z,8.01
2023-05-19T02:36:40.872Z,8.08
2023-05-19T02:39:09.799Z,7.72
2023-05-19T02:41:36.831Z,8.08
2023-05-19T02:44:03.447Z,7.82
2023-05-19T02:46:30.672Z,8.05
2023-05-19T02:48:57.142Z,7.98
2023-05-19T02:51:23.506Z,8.06
2023-05-19T02:53:50.247Z,7.88
2023-05-19T02:56:16.688Z,7.94
2023-05-19T02:58:43.185Z,8.05
2023-05-19T03:01:10.037Z,7.85
2023-05-19T03:03:36.580Z,7.85
2023-05-19T03:06:03.277Z,8.08
2023-05-19T03:08:29.783Z,7.82
2023-05-19T03:10:56.147Z,7.79
2023-05-19T03:13:22.570Z,7.78
2023-05-19T03:15:50.935Z,7.91
2023-05-19T03:18:17.377Z,7.63
2023-05-19T03:20:44.624Z,7.71
2023-05-19T03:23:11.122Z,7.75
2023-05-19T03:25:37.531Z,7.62
2023-05-19T03:28:04.483Z,7.56
2023-05-19T03:30:31.137Z,7.70
2023-05-19T03:33:10.914Z,7.18
2023-05-19T03:35:37.663Z,7.36
2023-05-19T03:38:04.104Z,7.31
2023-05-19T03:40:30.606Z,7.35
2023-05-19T03:43:04.786Z,7.21
2023-05-19T03:45:33.990Z,7.32
2023-05-19T03:48:11.063Z,7.23
2023-05-19T03:50:57.945Z,7.16
2023-05-19T03:53:26.439Z,7.35
2023-05-19T03:55:53.206Z,7.06
2023-05-19T03:58:19.548Z,6.96
2023-05-19T04:00:45.950Z,6.85
2023-05-19T04:03:12.566Z,6.72
2023-05-19T04:05:40.292Z,6.96
2023-05-19T04:08:06.692Z,7.17
2023-05-19T04:10:33.891Z,7.25
2023-05-19T04:13:00.529Z,7.42
2023-05-19T04:15:27.174Z,7.22
2023-05-19T04:17:53.608Z,7.22
2023-05-19T04:20:20.061Z,7.21
2023-05-19T04:22:46.419Z,7.32
2023-05-19T04:25:13.219Z,7.01
2023-05-19T04:27:39.628Z,7.09
2023-05-19T04:30:06.959Z,7.20
2023-05-19T04:32:34.420Z,6.97
2023-05-19T04:35:00.857Z,6.94
2023-05-19T04:37:29.848Z,7.05
2023-05-19T04:39:57.055Z,7.28
2023-05-19T04:42:26.034Z,7.14
2023-05-19T04:44:53.023Z,7.11
2023-05-19T04:47:21.477Z,7.05
2023-05-19T04:49:48.629Z,7.27
2023-05-19T04:52:15.888Z,7.17
2023-05-19T04:54:42.348Z,7.16
2023-05-19T04:57:12.130Z,7.26
2023-05-19T04:59:39.564Z,7.19
2023-05-19T05:02:07.829Z,7.44
2023-05-19T05:04:36.453Z,7.54
2023-05-19T05:07:03.035Z,7.39
2023-05-19T05:09:29.721Z,7.33
2023-05-19T05:11:58.783Z,7.33
2023-05-19T05:14:25.912Z,7.43
2023-05-19T05:16:52.830Z,7.65
2023-05-19T05:19:23.278Z,7.63
2023-05-19T05:21:49.988Z,7.81
2023-05-19T05:24:16.898Z,7.74
2023-05-19T05:26:48.737Z,7.91
2023-05-19T05:29:16.005Z,8.07
2023-05-19T05:31:42.443Z,8.02
2023-05-19T05:34:10.324Z,8.17
2023-05-19T05:36:36.916Z,8.21
2023-05-19T05:39:03.671Z,8.20
2023-05-19T05:41:35.162Z,8.21
2023-05-19T05:44:05.860Z,8.44
2023-05-19T05:46:32.922Z,8.57
2023-05-19T05:49:00.396Z,8.68
2023-05-19T05:51:27.051Z,8.78
2023-05-19T05:53:55.013Z,8.94
2023-05-19T05:56:27.574Z,9.05
2023-05-19T05:58:54.113Z,9.23
2023-05-19T06:01:21.835Z,9.35
2023-05-19T06:03:48.282Z,9.58
2023-05-19T06:06:19.447Z,9.77
2023-05-19T06:08:45.857Z,9.83
2023-05-19T06:11:12.397Z,9.99
2023-05-19T06:13:43.419Z,10.04
2023-05-19T06:16:15.910Z,10.17
2023-05-19T06:18:45.643Z,10.30
2023-05-19T06:21:13.250Z,10.45
2023-05-19T06:23:41.206Z,10.58
2023-05-19T06:26:09.479Z,10.64
2023-05-19T06:28:35.919Z,10.54
2023-05-19T06:31:02.342Z,10.57
2023-05-19T06:33:41.956Z,10.77
2023-05-19T06:36:09.989Z,10.87
2023-05-19T06:38:38.520Z,10.88
2023-05-19T06:41:06.738Z,10.87
2023-05-19T06:43:33.466Z,10.91
2023-05-19T06:46:03.054Z,10.99
2023-05-19T06:48:31.508Z,11.04
2023-05-19T06:50:58.742Z,11.14
2023-05-19T06:53:26.222Z,11.25
2023-05-19T06:55:58.844Z,11.36
2023-05-19T06:58:27.665Z,11.44
2023-05-19T07:00:54.338Z,11.38
2023-05-19T07:03:21.592Z,11.50
2023-05-19T07:05:48.328Z,11.57
2023-05-19T07:08:14.970Z,11.68
2023-05-19T07:10:42.097Z,11.81
2023-05-19T07:13:12.125Z,11.75
2023-05-19T07:15:38.527Z,11.87
2023-05-19T07:18:05.418Z,11.89
2023-05-19T07:20:32.040Z,12.00
2023-05-19T07:22:58.636Z,12.11
2023-05-19T07:25:26.991Z,12.18
2023-05-19T07:27:54.296Z,12.26
2023-05-19T07:30:20.649Z,12.35
2023-05-19T07:32:47.177Z,12.36
2023-05-19T07:35:13.795Z,12.47
2023-05-19T07:37:40.142Z,12.55
2023-05-19T07:40:07.880Z,12.55
2023-05-19T07:42:34.382Z,12.57
2023-05-19T07:45:01.123Z,12.56
2023-05-19T07:47:27.571Z,12.62
2023-05-19T07:49:53.891Z,12.66
2023-05-19T07:52:20.374Z,12.82
2023-05-19T07:54:46.799Z,13.02
2023-05-19T07:57:14.390Z,13.04
2023-05-19T07:59:40.776Z,13.12
2023-05-19T08:02:07.730Z,13.18
2023-05-19T08:04:34.258Z,13.24
2023-05-19T08:07:00.730Z,13.27
2023-05-19T08:09:27.179Z,13.25
2023-05-19T08:11:53.613Z,13.36
2023-05-19T08:14:22.252Z,13.44
2023-05-19T08:16:49.452Z,13.55
2023-05-19T08:19:15.856Z,13.69
2023-05-19T08:21:45.430Z,13.78
2023-05-19T08:24:11.790Z,13.93
2023-05-19T08:26:38.289Z,14.02
2023-05-19T08:29:04.677Z,14.13
2023-05-19T08:31:31.115Z,14.23
2023-05-19T08:33:57.495Z,14.34
2023-05-19T08:36:24.738Z,14.50
2023-05-19T08:38:51.458Z,14.55
2023-05-19T08:41:18.040Z,14.60
2023-05-19T08:43:45.147Z,14.71
2023-05-19T08:46:13.540Z,14.83
2023-05-19T08:48:42.452Z,14.90
2023-05-19T08:51:20.753Z,14.99
2023-05-19T08:53:50.894Z,14.93
2023-05-19T08:56:22.975Z,14.93
2023-05-19T08:58:50.790Z,14.93
2023-05-19T09:01:18.004Z,15.05
2023-05-19T09:03:46.028Z,15.16
2023-05-19T09:06:13.060Z,15.20
2023-05-19T09:08:43.944Z,15.26
2023-05-19T09:11:10.913Z,15.41
2023-05-19T09:13:37.545Z,15.55
2023-05-19T09:16:04.534Z,15.67
2023-05-19T09:18:31.338Z,15.73
2023-05-19T09:21:00.356Z,15.83
2023-05-19T09:23:32.525Z,15.93
2023-05-19T09:26:02.047Z,16.00
2023-05-19T09:28:31.480Z,15.99
2023-05-19T09:31:09.548Z,16.12
2023-05-19T09:33:37.947Z,16.24
2023-05-19T09:36:08.140Z,16.29
2023-05-19T09:38:38.604Z,16.39
2023-05-19T09:41:06.975Z,16.52
2023-05-19T09:43:34.911Z,16.56
2023-05-19T09:46:12.117Z,16.57
2023-05-19T09:48:40.775Z,16.61
2023-05-19T09:51:10.087Z,16.67
2023-05-19T09:53:36.544Z,16.84
2023-05-19T09:56:04.026Z,16.94
2023-05-19T09:58:37.619Z,17.05
2023-05-19T10:01:04.755Z,17.15
2023-05-19T10:03:32.918Z,17.12
2023-05-19T10:06:01.323Z,17.18
2023-05-19T10:08:30.193Z,17.25
2023-05-19T10:10:57.441Z,17.48
2023-05-19T10:13:24.903Z,17.60
2023-05-19T10:18:22.889Z,17.80
2023-05-19T10:20:50.138Z,17.91
2023-05-19T10:23:16.680Z,17.91
2023-05-19T10:25:44.054Z,18.09
2023-05-19T10:28:17.072Z,18.14
2023-05-19T10:30:47.468Z,18.19
2023-05-19T10:33:18.729Z,18.26
2023-05-19T10:36:08.875Z,18.28
2023-05-19T10:38:43.089Z,18.38
2023-05-19T10:41:23.628Z,18.51
2023-05-19T10:43:56.100Z,18.61
2023-05-19T10:46:30.078Z,18.72
2023-05-19T10:48:56.544Z,18.69
2023-05-19T10:51:45.361Z,18.93
2023-05-19T10:54:15.866Z,19.13
2023-05-19T10:56:47.047Z,19.33
2023-05-19T10:59:35.156Z,19.35
2023-05-19T11:02:05.931Z,19.53
2023-05-19T11:04:51.963Z,19.69
2023-05-19T11:07:20.100Z,19.81
2023-05-19T11:09:53.058Z,19.60
2023-05-19T11:12:21.684Z,19.50
2023-05-19T11:14:48.163Z,19.33
2023-05-19T11:17:16.176Z,19.10
2023-05-19T11:19:53.797Z,19.17
2023-05-19T11:22:24.583Z,19.28
2023-05-19T11:24:53.222Z,19.34
2023-05-19T11:27:33.218Z,19.39
2023-05-19T11:30:06.353Z,19.56
2023-05-19T11:32:34.320Z,19.76
2023-05-19T11:35:01.227Z,19.65
2023-05-19T11:37:31.998Z,19.87
2023-05-19T11:40:06.820Z,19.88
2023-05-19T11:42:37.049Z,19.69
2023-05-19T11:45:04.780Z,19.59
2023-05-19T11:47:42.000Z,19.69
2023-05-19T11:50:13.810Z,19.37
2023-05-19T11:52:44.734Z,19.31
2023-05-19T11:55:15.808Z,19.12
2023-05-19T11:58:02.725Z,18.85
2023-05-19T12:00:36.969Z,19.00
2023-05-19T12:03:03.853Z,19.18
2023-05-19T12:05:32.467Z,19.63
2023-05-19T12:08:00.979Z,19.84
2023-05-19T12:10:30.260Z,20.21
2023-05-19T12:12:58.314Z,20.35
2023-05-19T12:15:25.318Z,20.67
2023-05-19T12:17:57.262Z,20.82
2023-05-19T12:20:24.664Z,20.79
2023-05-19T12:22:51.684Z,20.84
2023-05-19T12:25:18.708Z,21.02
2023-05-19T12:27:45.225Z,21.18
2023-05-19T12:30:15.096Z,21.34
2023-05-19T12:32:42.626Z,21.41
2023-05-19T12:35:09.837Z,21.44
2023-05-19T12:37:40.700Z,21.25
2023-05-19T12:40:07.698Z,21.29
2023-05-19T12:42:35.567Z,20.99
2023-05-19T12:45:05.508Z,20.68
2023-05-19T12:47:36.313Z,20.59
2023-05-19T12:50:04.571Z,20.55
2023-05-19T12:52:35.188Z,20.44
2023-05-19T12:55:06.353Z,20.17
2023-05-19T12:57:44.158Z,20.23
2023-05-19T13:00:15.265Z,20.52
2023-05-19T13:03:05.692Z,20.77
2023-05-19T13:05:38.768Z,21.16
2023-05-19T13:08:14.041Z,20.77
2023-05-19T13:10:42.104Z,20.52
2023-05-19T13:13:09.690Z,20.38
2023-05-19T13:15:44.757Z,20.31
2023-05-19T13:18:12.962Z,20.29
2023-05-19T13:20:41.034Z,20.09
2023-05-19T13:23:07.557Z,20.01
2023-05-19T13:25:34.371Z,19.82
2023-05-19T13:28:04.881Z,20.10
2023-05-19T13:30:33.514Z,20.12
2023-05-19T13:33:00.209Z,20.16
2023-05-19T13:35:26.670Z,20.17
2023-05-19T13:37:53.489Z,20.08
2023-05-19T13:40:20.112Z,20.10
2023-05-19T13:42:46.657Z,19.95
2023-05-19T13:45:13.676Z,19.82
2023-05-19T13:47:40.098Z,19.63
2023-05-19T13:50:06.933Z,19.60
2023-05-19T13:52:33.557Z,19.44
2023-05-19T13:54:59.946Z,19.40
2023-05-19T13:57:26.569Z,19.33
2023-05-19T14:00:02.568Z,19.26
2023-05-19T14:02:38.558Z,19.25
2023-05-19T14:05:06.327Z,19.06
2023-05-19T14:07:34.612Z,19.09
2023-05-19T14:10:01.824Z,19.04
2023-05-19T14:12:38.120Z,19.05
2023-05-19T14:15:13.918Z,18.93
2023-05-19T14:17:40.303Z,18.80
2023-05-19T14:20:07.353Z,18.75
2023-05-19T14:22:33.749Z,18.80
2023-05-19T14:25:00.518Z,18.82
2023-05-19T14:27:26.862Z,18.89
2023-05-19T14:29:53.268Z,18.91
2023-05-19T14:32:20.159Z,18.86
2023-05-19T14:34:46.857Z,18.88
2023-05-19T14:37:13.218Z,18.93
2023-05-19T14:39:39.570Z,18.96
2023-05-19T14:42:05.900Z,18.94
2023-05-19T14:44:35.221Z,18.85
2023-05-19T14:47:02.182Z,18.80
2023-05-19T14:49:28.618Z,18.84
2023-05-19T14:51:55.064Z,18.70
2023-05-19T14:54:21.530Z,18.75
2023-05-19T14:56:48.055Z,18.72
2023-05-19T14:59:14.427Z,18.65
2023-05-19T15:01:40.862Z,18.63
2023-05-19T15:04:07.338Z,18.58
2023-05-19T15:06:33.713Z,18.50
2023-05-19T15:09:00.150Z,18.53
2023-05-19T15:11:26.534Z,18.51
2023-05-19T15:13:53.064Z,18.49
2023-05-19T15:16:19.800Z,18.53
2023-05-19T15:18:46.390Z,18.48
2023-05-19T15:21:12.874Z,18.45
2023-05-19T15:23:39.294Z,18.49
2023-05-19T15:26:05.836Z,18.48
2023-05-19T15:28:32.361Z,18.40
2023-05-19T15:30:58.943Z,18.19
2023-05-19T15:33:25.488Z,18.19
2023-05-19T15:35:52.229Z,18.16
2023-05-19T15:38:19.373Z,18.18
2023-05-19T15:40:46.580Z,18.23
2023-05-19T15:43:13.372Z,18.21
2023-05-19T15:45:39.752Z,18.25
2023-05-19T15:48:06.459Z,18.20
2023-05-19T15:50:33.003Z,18.11
2023-05-19T15:52:59.497Z,18.06
2023-05-19T15:55:25.879Z,18.04
2023-05-19T15:57:52.266Z,18.02
2023-05-19T16:00:18.898Z,18.01
2023-05-19T16:02:45.441Z,18.01
2023-05-19T16:05:11.832Z,18.02
2023-05-19T16:07:38.213Z,18.01
2023-05-19T16:10:04.992Z,17.96
2023-05-19T16:12:31.496Z,17.94
2023-05-19T16:14:57.849Z,17.88
2023-05-19T16:17:24.294Z,17.81
2023-05-19T16:19:50.668Z,17.74
2023-05-19T16:22:18.008Z,17.71
2023-05-19T16:24:44.404Z,17.70
2023-05-19T16:27:10.735Z,17.66
2023-05-19T16:29:37.126Z,17.62
2023-05-19T16:32:03.775Z,17.62
2023-05-19T16:34:30.743Z,17.54
2023-05-19T16:36:57.191Z,17.51
2023-05-19T16:39:23.574Z,17.53
2023-05-19T16:41:49.980Z,17.52
2023-05-19T16:44:18.205Z,17.52
2023-05-19T16:46:44.651Z,17.56
2023-05-19T16:49:11.229Z,17.52
2023-05-19T16:51:37.588Z,17.54
